Time;durP1;ratioP1;P1;durP2;ratioP2;P2;SDS_P1;SDS_P2;PMS_P1;PMS_P2;Temp;Humidity;BMP_temperature;BMP_pressure;BME280_temperature;BME280_humidity;BME280_pressure;Samples;Min_cycle;Max_cycle;Signal;HPM_P1;HPM_P2
2021/01/24 00:01:20;;;;;;;;;16.50;16.00;;;;;9.16;69.84;101290.03;6154575;23;11538;-72
2021/01/24 00:04:06;;;;;;;;;14.00;14.00;;;;;9.06;69.74;101293.00;6155485;23;11514;-73
2021/01/24 00:06:33;;;;;;;;;16.25;16.25;;;;;9.07;69.55;101289.13;6163228;23;11505;-72
2021/01/24 00:09:00;;;;;;;;;18.50;16.75;;;;;9.12;69.52;101294.56;6163264;23;11508;-73
2021/01/24 00:11:41;;;;;;;;;11.25;11.25;;;;;9.07;69.38;101289.13;6154324;23;12314;-72
2021/01/24 00:14:08;;;;;;;;;15.00;14.75;;;;;9.06;69.07;101287.50;6163264;23;11575;-73
2021/01/24 00:16:44;;;;;;;;;12.75;12.75;;;;;8.88;69.69;101286.44;6154945;23;11515;-73
2021/01/24 00:19:11;;;;;;;;;12.50;12.50;;;;;8.97;69.38;101277.44;6163956;23;11541;-73
2021/01/24 00:21:38;;;;;;;;;12.25;12.25;;;;;8.91;69.76;101285.03;6156440;23;11498;-73
2021/01/24 00:24:05;;;;;;;;;19.75;17.75;;;;;8.98;69.25;101282.69;6156517;23;11484;-72
2021/01/24 00:26:37;;;;;;;;;15.75;15.75;;;;;8.80;69.64;101280.81;6156554;23;11510;-72
2021/01/24 00:29:04;;;;;;;;;19.00;19.00;;;;;8.94;69.60;101283.59;6164848;23;11532;-73
2021/01/24 00:31:45;;;;;;;;;12.00;12.00;;;;;8.94;69.48;101276.13;6155889;23;11545;-73
2021/01/24 00:34:13;;;;;;;;;11.50;11.50;;;;;8.85;70.18;101275.22;6156437;23;11504;-73
2021/01/24 00:37:08;;;;;;;;;15.50;15.00;;;;;8.94;70.40;101269.81;6155637;23;11537;-73
2021/01/24 00:40:06;;;;;;;;;17.75;16.75;;;;;9.03;69.74;101287.28;6154953;23;11545;-73
2021/01/24 00:43:03;;;;;;;;;16.00;14.50;;;;;8.84;70.41;101274.41;6135438;23;11571;-73
2021/01/24 00:45:58;;;;;;;;;16.50;16.50;;;;;9.00;70.89;101276.84;6154899;23;11601;-73
2021/01/24 00:48:37;;;;;;;;;13.25;13.25;;;;;8.96;70.93;101267.53;6164660;23;11514;-73
2021/01/24 00:51:05;;;;;;;;;12.00;12.00;;;;;8.96;71.57;101264.78;6164703;23;12300;-72
2021/01/24 00:53:46;;;;;;;;;12.00;12.00;;;;;8.91;71.19;101263.78;6155550;23;11527;-72
2021/01/24 00:56:13;;;;;;;;;13.25;13.25;;;;;8.96;71.47;101254.56;6164621;23;12253;-72
2021/01/24 00:58:54;;;;;;;;;10.75;10.75;;;;;9.01;71.39;101260.00;6155345;23;11507;-73
2021/01/24 01:01:22;;;;;;;;;14.50;14.25;;;;;9.06;71.61;101262.66;6138716;23;11499;-73
2021/01/24 01:04:04;;;;;;;;;14.25;14.25;;;;;8.98;71.74;101260.63;6155202;23;11526;-72
2021/01/24 01:06:54;;;;;;;;;14.00;14.00;;;;;9.03;71.61;101254.97;6156689;23;11517;-73
2021/01/24 01:09:21;;;;;;;;;15.75;15.75;;;;;9.04;71.65;101255.78;6155774;23;11558;-72
2021/01/24 01:11:58;;;;;;;;;17.25;16.75;;;;;9.08;71.54;101256.81;6164406;23;11499;-72
2021/01/24 01:14:26;;;;;;;;;11.50;11.50;;;;;9.05;71.62;101263.78;6164410;23;11511;-72
2021/01/24 01:17:07;;;;;;;;;17.50;17.50;;;;;9.03;71.65;101260.50;6155264;23;11509;-73
2021/01/24 01:19:57;;;;;;;;;16.25;16.25;;;;;8.89;72.39;101256.91;6156506;23;11554;-72
2021/01/24 01:22:25;;;;;;;;;15.25;15.25;;;;;9.03;71.98;101260.50;6164097;23;11514;-72
2021/01/24 01:25:20;;;;;;;;;18.50;17.00;;;;;9.01;72.34;101253.66;6155079;23;11615;-72
2021/01/24 01:28:16;;;;;;;;;14.25;14.25;;;;;8.96;72.69;101253.75;6154195;23;11556;-72
2021/01/24 01:31:11;;;;;;;;;15.50;14.25;;;;;9.04;72.61;101253.03;6153485;23;11599;-73
2021/01/24 01:34:07;;;;;;;;;16.50;16.25;;;;;8.86;73.07;101260.28;6154244;23;11524;-73
2021/01/24 01:36:41;;;;;;;;;17.25;16.00;;;;;8.85;73.39;101245.69;6164119;23;12279;-73
2021/01/24 01:39:08;;;;;;;;;12.75;12.75;;;;;9.00;72.97;101252.03;6163978;23;11519;-73
2021/01/24 01:41:49;;;;;;;;;19.00;17.50;;;;;8.98;73.01;101244.06;6132917;23;11545;-73
2021/01/24 01:44:16;;;;;;;;;15.50;15.50;;;;;9.06;72.63;101248.06;6164157;23;11614;-72
2021/01/24 01:47:17;;;;;;;;;15.00;11.75;;;;;9.08;72.44;101252.13;6154065;23;11543;-73
2021/01/24 01:49:59;;;;;;;;;16.75;16.75;;;;;9.01;72.66;101248.16;6155097;23;11542;-73
2021/01/24 01:52:30;;;;;;;;;17.50;17.00;;;;;9.00;72.66;101241.81;6139072;23;11528;-73
2021/01/24 01:55:26;;;;;;;;;21.75;21.25;;;;;8.92;72.87;101242.53;6154057;23;11530;-73
2021/01/24 01:58:22;;;;;;;;;15.75;15.75;;;;;8.97;72.75;101242.44;6153945;23;11593;-73
2021/01/24 02:01:47;;;;;;;;;16.50;16.50;;;;;8.89;72.59;101243.13;6154238;23;11592;-72
2021/01/24 02:04:23;;;;;;;;;16.25;16.25;;;;;8.69;72.88;101249.88;6164052;23;11528;-73
2021/01/24 02:07:05;;;;;;;;;17.00;16.50;;;;;8.59;73.12;101245.38;6164063;23;12310;-73
2021/01/24 02:09:38;;;;;;;;;16.50;16.50;;;;;8.43;73.51;101246.72;6163571;23;11524;-73
2021/01/24 02:12:12;;;;;;;;;16.75;16.25;;;;;8.46;73.67;101248.91;6155604;23;11527;-73
2021/01/24 02:15:01;;;;;;;;;12.75;12.75;;;;;8.49;73.19;101245.53;6156060;23;11563;-73
2021/01/24 02:17:34;;;;;;;;;12.25;12.25;;;;;8.54;72.97;101241.88;6164014;23;11592;-73
2021/01/24 02:20:09;;;;;;;;;18.00;18.00;;;;;8.55;73.25;101241.56;6163822;23;11543;-73
2021/01/24 02:23:09;;;;;;;;;12.00;12.00;;;;;8.55;73.66;101240.75;6153706;23;11535;-73
2021/01/24 02:26:01;;;;;;;;;17.00;15.25;;;;;8.53;74.13;101231.97;6155395;23;12309;-73
2021/01/24 02:28:53;;;;;;;;;18.25;17.50;;;;;8.72;73.61;101242.91;6163911;23;11515;-73
2021/01/24 02:31:23;;;;;;;;;11.75;11.75;;;;;8.75;73.75;101239.56;6163783;23;11632;-73
2021/01/24 02:33:55;;;;;;;;;15.50;15.50;;;;;8.87;73.63;101240.69;6163887;23;11549;-73
2021/01/24 02:36:25;;;;;;;;;13.75;13.75;;;;;8.97;73.16;101239.69;6163893;23;11480;-73
2021/01/24 02:39:07;;;;;;;;;16.50;16.25;;;;;9.02;73.15;101236.78;6154498;23;11570;-73
2021/01/24 02:42:04;;;;;;;;;16.25;12.25;;;;;9.05;72.79;101230.69;6153254;23;11540;-73
2021/01/24 02:44:32;;;;;;;;;13.75;13.75;;;;;9.15;72.68;101235.97;6163683;23;11626;-73
2021/01/24 02:47:21;;;;;;;;;15.00;15.00;;;;;9.06;73.04;101226.78;6155700;23;11551;-73
2021/01/24 02:49:59;;;;;;;;;10.25;10.25;;;;;9.14;72.56;101233.53;6163651;23;11587;-73
2021/01/24 02:52:35;;;;;;;;;16.25;16.25;;;;;9.13;72.40;101224.44;6163434;23;11500;-72
2021/01/24 02:55:31;;;;;;;;;16.25;15.75;;;;;9.13;72.37;101229.97;6153707;23;11686;-72
2021/01/24 02:57:59;;;;;;;;;19.50;18.00;;;;;9.08;72.42;101224.53;6163636;23;11497;-72
2021/01/24 03:00:28;;;;;;;;;18.50;18.50;;;;;8.95;72.64;101230.88;6128693;23;11623;-72
2021/01/24 03:02:56;;;;;;;;;18.25;18.25;;;;;8.90;72.99;101229.03;6163462;23;11506;-73
2021/01/24 03:05:24;;;;;;;;;16.75;16.75;;;;;8.74;72.75;101226.88;6162075;23;11510;-72
2021/01/24 03:07:54;;;;;;;;;13.50;13.50;;;;;8.60;72.96;101229.63;6163284;23;11517;-72
2021/01/24 03:10:21;;;;;;;;;16.75;15.75;;;;;8.53;72.94;101227.28;6163185;23;11538;-73
2021/01/24 03:13:17;;;;;;;;;14.00;14.00;;;;;8.46;72.96;101234.31;6134332;23;11591;-73
2021/01/24 03:16:13;;;;;;;;;15.75;15.75;;;;;8.33;73.16;101233.09;6154329;23;12313;-73
2021/01/24 03:18:44;;;;;;;;;18.75;18.75;;;;;8.20;73.63;101226.44;6163429;23;11534;-72
2021/01/24 03:21:14;;;;;;;;;15.50;15.50;;;;;8.07;73.56;101230.00;6154659;23;11612;-73
2021/01/24 03:23:43;;;;;;;;;16.00;16.00;;;;;8.14;73.50;101235.13;6163198;23;11521;-73
2021/01/24 03:26:11;;;;;;;;;16.00;16.00;;;;;8.14;73.37;101226.84;6137715;23;12296;-73
2021/01/24 03:28:39;;;;;;;;;15.75;15.75;;;;;8.02;73.51;101230.06;6162966;23;12262;-72
2021/01/24 03:31:22;;;;;;;;;17.00;17.00;;;;;7.90;73.74;101225.03;6132115;23;11553;-72
2021/01/24 03:33:59;;;;;;;;;13.75;12.50;;;;;7.95;73.52;101222.19;6163299;23;11578;-72
2021/01/24 03:36:30;;;;;;;;;20.00;20.00;;;;;7.89;74.08;101234.38;6162086;23;11705;-73
2021/01/24 03:39:26;;;;;;;;;19.00;19.00;;;;;7.75;74.11;101237.09;6153080;23;11630;-73
2021/01/24 03:42:21;;;;;;;;;15.50;14.25;;;;;7.80;74.33;101228.75;6153035;23;11675;-73
2021/01/24 03:45:17;;;;;;;;;12.75;12.75;;;;;7.66;74.27;101227.03;6153393;23;11577;-73
2021/01/24 03:47:44;;;;;;;;;13.25;13.25;;;;;7.67;73.90;101236.97;6163430;23;11596;-73
2021/01/24 03:50:11;;;;;;;;;16.00;16.00;;;;;7.72;73.90;101232.16;6163269;23;11719;-73
2021/01/24 03:52:38;;;;;;;;;16.25;16.25;;;;;7.64;74.36;101227.34;6163311;23;12355;-72
2021/01/24 03:55:28;;;;;;;;;17.50;17.50;;;;;7.66;74.10;101232.53;6157258;23;11655;-73
2021/01/24 03:58:23;;;;;;;;;21.75;21.75;;;;;7.58;74.71;101230.47;6155369;23;11574;-73
2021/01/24 04:01:19;;;;;;;;;20.50;20.00;;;;;7.52;74.62;101230.56;6154882;23;11627;-72
2021/01/24 04:03:46;;;;;;;;;18.75;18.75;;;;;7.51;74.50;101231.69;6165226;23;12292;-73
2021/01/24 04:06:12;;;;;;;;;15.50;15.50;;;;;7.47;74.63;101227.88;6139296;23;11574;-73
2021/01/24 04:08:39;;;;;;;;;24.00;24.00;;;;;7.25;74.92;101235.88;6164566;23;11601;-72
2021/01/24 04:11:06;;;;;;;;;22.25;20.75;;;;;7.33;74.89;101234.41;6156664;23;11657;-73
2021/01/24 04:13:33;;;;;;;;;19.00;19.00;;;;;7.34;74.78;101228.59;6156462;23;11606;-73
2021/01/24 04:16:00;;;;;;;;;17.50;17.50;;;;;7.41;74.65;101231.78;6165005;23;11581;-72
2021/01/24 04:18:27;;;;;;;;;27.75;26.00;;;;;7.54;74.85;101230.25;6156443;23;11581;-73
2021/01/24 04:21:23;;;;;;;;;21.00;21.00;;;;;7.69;74.87;101231.97;6154718;23;11605;-73
2021/01/24 04:23:50;;;;;;;;;30.25;29.00;;;;;7.83;74.81;101243.06;6164767;23;11580;-73
2021/01/24 04:26:39;;;;;;;;;26.75;26.75;;;;;7.92;74.51;101244.00;6164853;23;11632;-73
2021/01/24 04:29:34;;;;;;;;;22.00;20.50;;;;;7.98;74.14;101240.88;6154664;23;11608;-73
2021/01/24 04:32:30;;;;;;;;;25.75;23.75;;;;;7.95;73.98;101235.94;6154933;23;11566;-75
2021/01/24 04:34:58;;;;;;;;;26.50;26.50;;;;;7.97;74.20;101232.88;6155048;23;11626;-74
2021/01/24 04:37:54;;;;;;;;;23.25;23.25;;;;;7.93;73.97;101231.88;6154876;23;11690;-73
2021/01/24 04:40:49;;;;;;;;;14.75;14.75;;;;;7.98;74.28;101237.31;6154708;23;12280;-73
2021/01/24 04:43:16;;;;;;;;;26.50;26.50;;;;;7.99;74.60;101236.19;6135178;23;11586;-73
2021/01/24 04:45:44;;;;;;;;;28.00;27.00;;;;;8.03;74.04;101232.50;6135227;23;11581;-73
2021/01/24 04:48:11;;;;;;;;;23.75;23.75;;;;;8.00;74.48;101226.78;6133783;23;11720;-73
2021/01/24 04:50:39;;;;;;;;;20.75;20.00;;;;;8.08;73.93;101234.38;6134862;23;11606;-73
2021/01/24 04:53:21;;;;;;;;;24.25;24.00;;;;;8.09;74.42;101236.81;6126284;23;11608;-73
2021/01/24 04:55:58;;;;;;;;;21.50;21.50;;;;;8.03;73.85;101221.50;6135276;23;11670;-74
2021/01/24 04:58:25;;;;;;;;;23.75;23.25;;;;;8.03;73.79;101227.00;6126691;23;11593;-73
2021/01/24 05:00:52;;;;;;;;;21.75;21.75;;;;;8.07;73.97;101235.50;6134918;23;11667;-72
2021/01/24 05:03:20;;;;;;;;;24.25;23.75;;;;;8.12;74.25;101237.31;6126387;23;11625;-73
2021/01/24 05:05:47;;;;;;;;;23.25;23.25;;;;;8.17;73.90;101232.56;6134887;23;11614;-74
2021/01/24 05:08:15;;;;;;;;;24.50;24.50;;;;;8.16;73.88;101239.19;6134832;23;11540;-74
2021/01/24 05:10:46;;;;;;;;;22.25;22.25;;;;;8.23;73.54;101241.56;6134580;23;11616;-73
2021/01/24 05:13:32;;;;;;;;;23.50;23.50;;;;;8.19;74.18;101241.34;6127222;23;11792;-74
2021/01/24 05:16:28;;;;;;;;;20.25;19.75;;;;;8.26;73.31;101241.75;6124465;23;12359;-73
2021/01/24 05:18:57;;;;;;;;;17.00;16.75;;;;;8.20;73.52;101239.41;6134469;23;11586;-73
2021/01/24 05:21:47;;;;;;;;;20.25;19.50;;;;;8.25;73.40;101239.31;6129033;23;11647;-73
2021/01/24 05:24:42;;;;;;;;;14.00;12.00;;;;;8.31;73.14;101243.63;6124555;23;12396;-73
2021/01/24 05:27:38;;;;;;;;;17.25;17.25;;;;;8.34;72.98;101229.22;6124756;23;11588;-74
2021/01/24 05:30:34;;;;;;;;;21.25;20.75;;;;;8.32;72.84;101240.56;6124223;23;11542;-72
2021/01/24 05:33:33;;;;;;;;;10.75;10.75;;;;;8.13;72.94;101241.72;6129800;23;11698;-74
2021/01/24 05:36:40;;;;;;;;;21.50;19.00;;;;;8.39;72.34;101247.66;6123831;23;11498;-72
2021/01/24 05:39:36;;;;;;;;;15.00;15.00;;;;;8.42;72.01;101242.34;6124656;23;12388;-74
2021/01/24 05:42:25;;;;;;;;;14.75;14.75;;;;;8.35;72.07;101239.16;6148496;23;11523;-74
2021/01/24 05:45:01;;;;;;;;;14.25;13.00;;;;;8.52;71.98;101247.69;6131589;23;11555;-74
2021/01/24 05:47:47;;;;;;;;;12.50;12.50;;;;;8.57;71.78;101239.31;6140398;23;11573;-75
2021/01/24 05:50:19;;;;;;;;;12.75;11.50;;;;;8.63;71.55;101245.56;6163946;23;11494;-74
2021/01/24 05:53:15;;;;;;;;;10.00;10.00;;;;;8.65;71.83;101237.78;6153770;23;11525;-73
2021/01/24 05:55:57;;;;;;;;;11.75;11.75;;;;;8.71;71.37;101246.78;6153518;23;11577;-73
2021/01/24 05:58:24;;;;;;;;;8.25;8.00;;;;;8.82;70.83;101251.00;6155205;23;11592;-72
2021/01/24 06:01:01;;;;;;;;;7.00;7.00;;;;;8.75;70.86;101256.94;6163327;23;12226;-73
2021/01/24 06:03:58;;;;;;;;;9.25;7.75;;;;;8.83;70.41;101244.38;6153599;23;11479;-72
2021/01/24 06:06:54;;;;;;;;;11.00;11.00;;;;;8.76;70.38;101242.00;6153256;23;11510;-73
2021/01/24 06:09:38;;;;;;;;;7.00;7.00;;;;;8.96;69.95;101248.22;6153976;23;11508;-73
2021/01/24 06:12:23;;;;;;;;;10.00;10.00;;;;;8.87;70.25;101240.69;6153802;23;11518;-72
2021/01/24 06:15:24;;;;;;;;;5.00;5.00;;;;;8.95;69.73;101252.94;6153959;23;11509;-72
2021/01/24 06:18:27;;;;;;;;;16.50;15.75;;;;;8.94;69.35;101254.06;6133467;23;11608;-72
2021/01/24 06:21:18;;;;;;;;;16.75;15.25;;;;;8.96;69.69;101251.00;6153169;23;11539;-72
2021/01/24 06:24:11;;;;;;;;;10.75;10.25;;;;;9.04;69.32;101253.03;6132243;23;11531;-73
2021/01/24 06:27:09;;;;;;;;;7.75;7.75;;;;;9.06;69.58;101248.88;6133760;23;11513;-72
2021/01/24 06:30:14;;;;;;;;;9.00;9.00;;;;;9.07;69.50;101244.97;6134095;23;11473;-72
2021/01/24 06:33:15;;;;;;;;;15.75;13.75;;;;;9.11;69.69;101243.22;6153709;23;11524;-72
2021/01/24 06:36:12;;;;;;;;;6.25;6.25;;;;;9.11;69.38;101265.28;6134005;23;11557;-72
2021/01/24 06:39:08;;;;;;;;;10.00;10.00;;;;;9.15;69.81;101260.81;6153522;23;11554;-73
2021/01/24 06:42:04;;;;;;;;;5.75;5.75;;;;;9.25;69.47;101258.97;6152783;23;11456;-73
2021/01/24 06:45:27;;;;;;;;;8.00;8.00;;;;;9.31;69.27;101254.97;6155529;23;11474;-73
2021/01/24 06:48:09;;;;;;;;;7.00;7.00;;;;;9.41;69.10;101261.09;6154519;23;11488;-73
2021/01/24 06:51:30;;;;;;;;;9.75;9.75;;;;;9.50;69.11;101249.31;6154564;23;11491;-73
2021/01/24 06:54:25;;;;;;;;;9.50;9.50;;;;;9.54;69.08;101251.16;6134008;23;11524;-73
2021/01/24 06:57:06;;;;;;;;;7.00;7.00;;;;;9.56;68.79;101245.31;6138110;23;11561;-73
2021/01/24 07:00:20;;;;;;;;;8.50;8.50;;;;;9.60;68.71;101243.56;6115779;23;11528;-74
2021/01/24 07:03:17;;;;;;;;;15.00;12.00;;;;;9.65;68.65;101246.19;6153745;23;11580;-74
2021/01/24 07:06:33;;;;;;;;;11.00;11.00;;;;;9.69;68.30;101247.22;6154219;23;12281;-74
2021/01/24 07:09:25;;;;;;;;;7.75;7.75;;;;;9.55;68.56;101254.72;6155662;23;11503;-74
2021/01/24 07:11:55;;;;;;;;;7.75;7.75;;;;;9.74;68.24;101247.94;6137839;23;11476;-73
2021/01/24 07:14:37;;;;;;;;;8.25;8.25;;;;;9.83;68.00;101248.00;6163494;23;11517;-74
2021/01/24 07:17:23;;;;;;;;;6.75;6.75;;;;;9.79;68.04;101257.22;6155174;23;11502;-74
2021/01/24 07:20:06;;;;;;;;;8.75;8.50;;;;;9.83;68.21;101255.47;6157359;23;11809;-73
2021/01/24 07:22:54;;;;;;;;;7.00;7.00;;;;;9.84;67.97;101248.81;6163186;23;11474;-73
2021/01/24 07:25:49;;;;;;;;;9.75;9.75;;;;;9.86;68.34;101252.91;6133898;23;11485;-74
2021/01/24 07:28:19;;;;;;;;;10.75;10.50;;;;;9.90;67.57;101248.41;6163627;23;11481;-74
2021/01/24 07:31:14;;;;;;;;;9.75;9.75;;;;;9.95;67.28;101250.19;6155635;23;11542;-74
2021/01/24 07:34:00;;;;;;;;;6.50;6.50;;;;;10.00;67.54;101252.84;6157490;23;11464;-74
2021/01/24 07:36:55;;;;;;;;;11.75;8.50;;;;;10.00;66.99;101259.19;6155504;23;11046;-74
2021/01/24 07:39:22;;;;;;;;;7.25;7.25;;;;;10.00;66.59;101263.91;6156632;23;11071;-74
2021/01/24 07:42:18;;;;;;;;;7.75;7.75;;;;;10.08;66.48;101274.22;6135640;23;11066;-74
2021/01/24 07:45:14;;;;;;;;;12.25;11.50;;;;;10.15;66.54;101273.78;6155702;23;11460;-74
2021/01/24 07:48:10;;;;;;;;;6.00;6.00;;;;;10.06;66.98;101268.19;6135724;23;11508;-74
2021/01/24 07:51:06;;;;;;;;;10.00;9.00;;;;;10.19;66.71;101280.28;6155163;23;11559;-74
2021/01/24 07:53:42;;;;;;;;;4.00;4.00;;;;;10.20;66.90;101273.66;6165282;23;11496;-74
2021/01/24 07:56:11;;;;;;;;;8.75;8.75;;;;;10.22;67.09;101282.44;6156569;23;10984;-74
2021/01/24 07:58:57;;;;;;;;;8.00;8.00;;;;;10.32;66.93;101290.50;6156347;23;11202;-73
2021/01/24 08:01:26;;;;;;;;;9.00;9.00;;;;;10.25;67.25;101285.41;6164795;23;10962;-74
2021/01/24 08:04:07;;;;;;;;;7.00;7.00;;;;;10.31;67.14;101294.41;6156166;23;11221;-74
2021/01/24 08:07:09;;;;;;;;;5.75;5.75;;;;;10.27;67.24;101290.63;6135165;23;10893;-74
2021/01/24 08:09:38;;;;;;;;;8.75;8.75;;;;;10.27;67.33;101285.94;6165008;23;11798;-74
2021/01/24 08:12:33;;;;;;;;;5.50;5.50;;;;;10.22;67.77;101288.81;6135400;23;11134;-74
2021/01/24 08:15:29;;;;;;;;;6.25;6.25;;;;;10.39;67.47;101287.31;6155322;23;11010;-74
2021/01/24 08:18:26;;;;;;;;;9.50;9.50;;;;;10.21;68.01;101280.81;6135287;23;10825;-74
2021/01/24 08:21:23;;;;;;;;;11.00;11.00;;;;;10.25;67.92;101277.13;6154244;23;11867;-74
2021/01/24 08:24:01;;;;;;;;;8.00;8.00;;;;;10.38;67.86;101277.38;6164885;23;11068;-74
2021/01/24 08:26:30;;;;;;;;;7.25;7.25;;;;;10.28;67.78;101276.50;6164714;23;11049;-74
2021/01/24 08:29:34;;;;;;;;;7.00;7.00;;;;;10.47;67.32;101272.72;6154364;23;10982;-73
2021/01/24 08:32:31;;;;;;;;;7.25;7.25;;;;;10.40;67.45;101267.63;6135497;23;10957;-74
2021/01/24 08:35:00;;;;;;;;;7.00;7.00;;;;;10.39;67.17;101268.75;6164714;23;10981;-74
2021/01/24 08:37:56;;;;;;;;;7.25;7.25;;;;;10.41;67.19;101269.25;6154804;23;10866;-72
2021/01/24 08:40:36;;;;;;;;;8.00;7.50;;;;;10.54;66.34;101259.25;6164696;23;11064;-72
2021/01/24 08:43:32;;;;;;;;;7.25;7.25;;;;;10.56;66.13;101257.81;6154677;23;10863;-72
2021/01/24 08:46:21;;;;;;;;;8.25;8.25;;;;;10.55;66.08;101256.16;6156063;23;10970;-72
2021/01/24 08:49:05;;;;;;;;;7.50;7.50;;;;;10.57;65.70;101242.03;6139339;23;10756;-72
2021/01/24 08:51:53;;;;;;;;;12.00;11.00;;;;;10.57;65.43;101253.09;6164552;23;10807;-73
2021/01/24 08:55:00;;;;;;;;;8.00;8.00;;;;;10.50;65.35;101233.34;6154331;23;10828;-71
2021/01/24 08:57:55;;;;;;;;;8.75;8.75;;;;;10.58;64.79;101238.97;6135853;23;10842;-71
2021/01/24 09:00:31;;;;;;;;;10.50;8.25;;;;;10.66;64.59;101240.13;6163605;23;11116;-71
2021/01/24 09:03:27;;;;;;;;;11.50;11.25;;;;;10.65;64.49;101232.13;6153844;23;11004;-70
2021/01/24 09:06:22;;;;;;;;;8.75;8.75;;;;;10.68;64.80;101229.56;6134466;23;11260;-70
2021/01/24 09:09:26;;;;;;;;;7.50;7.50;;;;;10.78;64.03;101225.69;6134409;23;11136;-70
2021/01/24 09:12:13;;;;;;;;;8.25;8.25;;;;;10.84;63.98;101230.78;6141043;23;10829;-70
2021/01/24 09:15:09;;;;;;;;;13.50;13.00;;;;;10.95;64.02;101225.75;6153865;23;10907;-70
2021/01/24 09:18:05;;;;;;;;;7.00;6.50;;;;;11.03;63.18;101226.91;6154590;23;10979;-71
2021/01/24 09:20:37;;;;;;;;;6.75;6.75;;;;;11.06;62.97;101229.88;6163888;23;10905;-70
2021/01/24 09:23:33;;;;;;;;;8.75;8.75;;;;;10.94;62.89;101226.88;6154160;23;11100;-70
2021/01/24 09:26:28;;;;;;;;;7.50;7.50;;;;;11.02;62.10;101230.81;6134713;23;10902;-71
2021/01/24 09:29:24;;;;;;;;;12.00;12.00;;;;;10.99;62.92;101229.53;6134293;23;10833;-73
2021/01/24 09:32:30;;;;;;;;;10.25;10.25;;;;;11.04;62.81;101225.78;6155762;23;10924;-71
2021/01/24 09:35:25;;;;;;;;;6.50;6.50;;;;;10.90;63.08;101220.38;6134802;23;11575;-70
2021/01/24 09:38:21;;;;;;;;;12.50;11.50;;;;;10.92;64.06;101220.06;6153735;23;10770;-70
2021/01/24 09:41:16;;;;;;;;;12.25;12.00;;;;;10.88;64.00;101224.59;6153695;23;10961;-71
2021/01/24 09:44:12;;;;;;;;;8.50;8.50;;;;;10.89;64.07;101220.69;6154403;23;11034;-71
2021/01/24 09:47:07;;;;;;;;;7.75;7.50;;;;;10.89;64.05;101213.22;6153927;23;11754;-71
2021/01/24 09:50:03;;;;;;;;;8.25;8.25;;;;;10.94;64.12;101203.94;6153879;23;10810;-71
2021/01/24 09:52:31;;;;;;;;;11.50;11.50;;;;;11.01;64.30;101198.75;6137600;23;10831;-71
2021/01/24 09:55:27;;;;;;;;;8.50;8.50;;;;;11.17;63.66;101201.88;6134226;23;10872;-71
2021/01/24 09:57:57;;;;;;;;;8.25;7.25;;;;;11.30;62.84;101198.16;6163713;23;10831;-71
2021/01/24 10:00:39;;;;;;;;;11.00;11.00;;;;;11.38;63.10;101192.63;6154540;23;10758;-70
2021/01/24 10:03:36;;;;;;;;;7.00;7.00;;;;;11.54;61.12;101189.41;6134104;23;10881;-70
2021/01/24 10:06:04;;;;;;;;;14.50;13.50;;;;;11.61;61.20;101187.78;6163940;23;10674;-69
2021/01/24 10:08:32;;;;;;;;;12.00;12.00;;;;;11.73;61.30;101184.34;6163841;23;10574;-70
2021/01/24 10:11:14;;;;;;;;;9.75;9.75;;;;;11.89;60.37;101177.19;6154380;23;10518;-70
2021/01/24 10:14:10;;;;;;;;;11.00;11.00;;;;;11.85;60.82;101173.44;6153808;23;10634;-70
2021/01/24 10:16:37;;;;;;;;;9.00;8.25;;;;;11.88;60.54;101174.72;6155040;23;10562;-69
2021/01/24 10:19:22;;;;;;;;;8.25;8.25;;;;;11.85;61.28;101165.13;6163436;23;10449;-70
2021/01/24 10:22:17;;;;;;;;;4.50;4.50;;;;;11.85;60.26;101159.59;6133936;23;10605;-70
2021/01/24 10:25:13;;;;;;;;;10.25;10.25;;;;;11.84;60.78;101163.50;6134909;23;11371;-70
2021/01/24 10:27:40;;;;;;;;;7.50;7.50;;;;;11.95;60.40;101152.88;6164004;23;10457;-71
2021/01/24 10:30:22;;;;;;;;;13.00;11.50;;;;;12.05;60.17;101146.19;6154743;23;10633;-70
2021/01/24 10:33:18;;;;;;;;;11.75;11.75;;;;;12.00;60.16;101144.41;6153244;23;10628;-70
2021/01/24 10:36:14;;;;;;;;;10.25;10.25;;;;;12.00;60.02;101147.16;6153640;23;10617;-70
2021/01/24 10:38:43;;;;;;;;;10.75;10.75;;;;;11.97;60.40;101142.31;6128538;23;11223;-70
2021/01/24 10:41:10;;;;;;;;;8.75;8.75;;;;;12.01;60.60;101131.34;6163102;23;10364;-70
2021/01/24 10:44:06;;;;;;;;;7.50;7.50;;;;;12.02;60.32;101135.75;6134061;23;10432;-70
2021/01/24 10:47:02;;;;;;;;;10.00;10.00;;;;;11.96;60.81;101130.41;6133918;23;10603;-71
2021/01/24 10:49:57;;;;;;;;;8.75;8.75;;;;;12.04;60.75;101123.22;6133840;23;10558;-70
2021/01/24 10:52:53;;;;;;;;;13.25;11.75;;;;;11.99;60.33;101125.34;6133415;23;11260;-71
2021/01/24 10:55:49;;;;;;;;;10.00;8.50;;;;;12.04;59.27;101117.66;6133666;23;10630;-71
2021/01/24 10:58:30;;;;;;;;;5.50;5.50;;;;;12.01;59.55;101114.72;6154146;23;11247;-71
2021/01/24 11:01:26;;;;;;;;;9.00;9.00;;;;;11.94;60.34;101113.25;6133484;23;10301;-71
2021/01/24 11:04:11;;;;;;;;;9.00;9.00;;;;;11.93;60.51;101108.06;6158038;23;10512;-71
2021/01/24 11:07:07;;;;;;;;;6.00;6.00;;;;;12.14;60.13;101099.84;6152638;23;11302;-71
2021/01/24 11:09:37;;;;;;;;;8.50;8.50;;;;;12.14;59.87;101091.53;6154689;23;10515;-71
2021/01/24 11:12:13;;;;;;;;;13.00;13.00;;;;;12.05;60.13;101104.63;6161802;23;10230;-71
2021/01/24 11:15:09;;;;;;;;;9.00;9.00;;;;;12.16;59.71;101092.81;6133394;23;10427;-71
2021/01/24 11:18:05;;;;;;;;;6.00;6.00;;;;;12.21;58.73;101083.50;6152824;23;10440;-71
2021/01/24 11:20:51;;;;;;;;;8.25;7.50;;;;;12.23;59.89;101070.94;6131614;23;10395;-71
2021/01/24 11:23:37;;;;;;;;;8.50;8.50;;;;;12.27;58.98;101067.47;6152981;23;10368;-70
2021/01/24 11:26:32;;;;;;;;;9.50;9.00;;;;;12.18;59.26;101061.97;6152917;23;11185;-70
2021/01/24 11:29:16;;;;;;;;;7.00;7.00;;;;;12.24;59.34;101066.19;6154603;23;10433;-70
2021/01/24 11:31:45;;;;;;;;;8.00;8.00;;;;;12.28;58.76;101058.03;6137834;23;10280;-70
2021/01/24 11:34:56;;;;;;;;;7.25;7.25;;;;;12.40;58.39;101060.91;6136526;23;10216;-70
2021/01/24 11:37:52;;;;;;;;;9.00;9.00;;;;;12.43;58.27;101058.28;6152839;23;10410;-70
2021/01/24 11:40:19;;;;;;;;;8.25;8.25;;;;;12.19;58.62;101053.34;6162731;23;10526;-71
2021/01/24 11:42:47;;;;;;;;;12.50;12.50;;;;;12.21;58.62;101053.00;6156138;23;10209;-70
2021/01/24 11:45:32;;;;;;;;;8.25;8.25;;;;;12.03;59.50;101048.66;6162667;23;10625;-70
2021/01/24 11:48:27;;;;;;;;;9.50;9.50;;;;;12.11;59.02;101045.03;6152867;23;10151;-70
2021/01/24 11:51:24;;;;;;;;;9.00;9.00;;;;;12.02;59.26;101058.13;6152628;23;10561;-70
2021/01/24 11:54:20;;;;;;;;;8.75;8.75;;;;;12.01;59.91;101040.69;6152862;23;10388;-70
2021/01/24 11:57:15;;;;;;;;;7.00;7.00;;;;;11.87;59.62;101045.63;6132514;23;10451;-70
2021/01/24 11:59:47;;;;;;;;;3.25;3.25;;;;;11.67;60.58;101052.66;6161443;23;10506;-70
2021/01/24 12:02:28;;;;;;;;;9.00;9.00;;;;;11.93;59.74;101049.84;6152661;23;10389;-71
2021/01/24 12:05:24;;;;;;;;;2.00;2.00;;;;;11.91;59.61;101052.97;6152766;23;10649;-70
2021/01/24 12:07:51;;;;;;;;;8.75;8.75;;;;;11.96;59.40;101046.41;6137147;23;10398;-70
2021/01/24 12:10:47;;;;;;;;;3.00;3.00;;;;;12.02;59.61;101038.72;6131271;23;10421;-70
2021/01/24 12:13:28;;;;;;;;;9.00;9.00;;;;;11.90;59.52;101037.47;6150062;23;10371;-70
2021/01/24 12:16:24;;;;;;;;;7.00;7.00;;;;;11.88;59.71;101036.97;6150827;23;10444;-70
2021/01/24 12:19:20;;;;;;;;;8.00;8.00;;;;;11.89;59.51;101040.59;6150724;23;10624;-70
2021/01/24 12:21:54;;;;;;;;;8.50;8.50;;;;;11.89;59.46;101033.09;6159604;23;10541;-70
2021/01/24 12:24:50;;;;;;;;;7.00;7.00;;;;;11.80;59.44;101023.13;6149939;23;10476;-70
2021/01/24 12:27:46;;;;;;;;;8.00;8.00;;;;;11.79;59.31;101033.38;6148395;23;10315;-69
2021/01/24 12:30:42;;;;;;;;;6.50;6.50;;;;;11.86;59.24;101039.28;6129764;23;10485;-70
2021/01/24 12:33:37;;;;;;;;;7.50;7.50;;;;;11.72;59.32;101032.28;6149946;23;10292;-70
2021/01/24 12:36:33;;;;;;;;;8.00;8.00;;;;;11.74;59.19;101041.91;6149613;23;11261;-70
2021/01/24 12:39:14;;;;;;;;;7.25;7.25;;;;;11.72;59.19;101043.34;6150643;23;10617;-70